sensor_id;sensor_type;location;lat;lon;timestamp;temperature;humidity
57264;DHT22;43113;53.124;6.092;2022-10-31T00:02:03;11.00;99.90
57264;DHT22;43113;53.124;6.092;2022-10-31T00:04:29;11.00;99.90
57264;DHT22;43113;53.124;6.092;2022-10-31T00:06:55;11.00;99.90
57264;DHT22;43113;53.124;6.092;2022-10-31T00:09:20;11.00;99.90
57264;DHT22;43113;53.124;6.092;2022-10-31T00:11:46;10.90;99.90
57264;DHT22;43113;53.124;6.092;2022-10-31T00:14:12;11.10;99.90
57264;DHT22;43113;53.124;6.092;2022-10-31T00:16:38;10.90;99.90
57264;DHT22;43113;53.124;6.092;2022-10-31T00:19:06;10.90;99.90
57264;DHT22;43113;53.124;6.092;2022-10-31T00:21:32;11.00;99.90
57264;DHT22;43113;53.124;6.092;2022-10-31T00:23:59;11.00;99.90
57264;DHT22;43113;53.124;6.092;2022-10-31T00:26:27;11.30;99.90
57264;DHT22;43113;53.124;6.092;2022-10-31T00:28:53;11.00;99.90
57264;DHT22;43113;53.124;6.092;2022-10-31T00:31:19;11.00;99.90
57264;DHT22;43113;53.124;6.092;2022-10-31T00:33:45;11.00;99.90
57264;DHT22;43113;53.124;6.092;2022-10-31T00:36:13;10.90;99.90
57264;DHT22;43113;53.124;6.092;2022-10-31T00:38:39;10.90;99.90
57264;DHT22;43113;53.124;6.092;2022-10-31T00:41:05;10.90;99.90
57264;DHT22;43113;53.124;6.092;2022-10-31T00:43:31;10.80;99.90
57264;DHT22;43113;53.124;6.092;2022-10-31T00:45:57;10.80;99.90
57264;DHT22;43113;53.124;6.092;2022-10-31T00:48:22;10.80;99.90
57264;DHT22;43113;53.124;6.092;2022-10-31T00:50:48;10.80;99.90
57264;DHT22;43113;53.124;6.092;2022-10-31T00:53:13;10.80;99.90
57264;DHT22;43113;53.124;6.092;2022-10-31T00:55:39;10.80;99.90
57264;DHT22;43113;53.124;6.092;2022-10-31T00:58:05;10.80;99.90
57264;DHT22;43113;53.124;6.092;2022-10-31T01:00:30;10.80;99.90
57264;DHT22;43113;53.124;6.092;2022-10-31T01:02:56;10.80;99.90
57264;DHT22;43113;53.124;6.092;2022-10-31T01:05:22;10.70;99.90
57264;DHT22;43113;53.124;6.092;2022-10-31T01:07:47;10.80;99.90
57264;DHT22;43113;53.124;6.092;2022-10-31T01:10:13;10.80;99.90
57264;DHT22;43113;53.124;6.092;2022-10-31T01:12:42;10.80;99.90
57264;DHT22;43113;53.124;6.092;2022-10-31T01:15:09;10.80;99.90
57264;DHT22;43113;53.124;6.092;2022-10-31T01:17:35;10.80;99.90
57264;DHT22;43113;53.124;6.092;2022-10-31T01:20:02;10.90;99.90
57264;DHT22;43113;53.124;6.092;2022-10-31T01:22:28;10.90;99.90
57264;DHT22;43113;53.124;6.092;2022-10-31T01:24:54;10.90;99.90
57264;DHT22;43113;53.124;6.092;2022-10-31T01:27:19;10.90;99.90
57264;DHT22;43113;53.124;6.092;2022-10-31T01:29:45;10.90;99.90
57264;DHT22;43113;53.124;6.092;2022-10-31T01:32:11;11.00;99.90
57264;DHT22;43113;53.124;6.092;2022-10-31T01:34:37;10.90;99.90
57264;DHT22;43113;53.124;6.092;2022-10-31T01:37:02;10.90;99.90
57264;DHT22;43113;53.124;6.092;2022-10-31T01:39:28;10.80;99.90
57264;DHT22;43113;53.124;6.092;2022-10-31T01:41:54;10.70;99.90
57264;DHT22;43113;53.124;6.092;2022-10-31T01:49:34;10.60;99.90
57264;DHT22;43113;53.124;6.092;2022-10-31T01:54:48;10.60;99.90
57264;DHT22;43113;53.124;6.092;2022-10-31T01:57:18;10.60;99.90
57264;DHT22;43113;53.124;6.092;2022-10-31T01:59:49;10.50;99.90
57264;DHT22;43113;53.124;6.092;2022-10-31T02:02:18;10.60;99.90
57264;DHT22;43113;53.124;6.092;2022-10-31T02:04:45;10.50;99.90
57264;DHT22;43113;53.124;6.092;2022-10-31T02:07:16;10.60;99.90
57264;DHT22;43113;53.124;6.092;2022-10-31T02:09:45;10.50;99.90
57264;DHT22;43113;53.124;6.092;2022-10-31T02:12:12;10.60;99.90
57264;DHT22;43113;53.124;6.092;2022-10-31T02:14:39;10.60;99.90
57264;DHT22;43113;53.124;6.092;2022-10-31T02:17:05;10.60;99.90
57264;DHT22;43113;53.124;6.092;2022-10-31T02:30:19;10.40;99.90
57264;DHT22;43113;53.124;6.092;2022-10-31T02:35:44;10.40;99.90
57264;DHT22;43113;53.124;6.092;2022-10-31T02:38:29;10.30;99.90
57264;DHT22;43113;53.124;6.092;2022-10-31T02:49:03;10.10;99.90
57264;DHT22;43113;53.124;6.092;2022-10-31T02:51:32;10.10;99.90
57264;DHT22;43113;53.124;6.092;2022-10-31T02:53:58;10.10;99.90
57264;DHT22;43113;53.124;6.092;2022-10-31T02:56:24;10.00;99.90
57264;DHT22;43113;53.124;6.092;2022-10-31T02:58:53;10.00;99.90
57264;DHT22;43113;53.124;6.092;2022-10-31T03:07:17;9.90;99.90
57264;DHT22;43113;53.124;6.092;2022-10-31T03:15:27;10.00;99.90
57264;DHT22;43113;53.124;6.092;2022-10-31T03:20:42;9.80;99.90
57264;DHT22;43113;53.124;6.092;2022-10-31T03:23:14;9.80;99.90
57264;DHT22;43113;53.124;6.092;2022-10-31T03:25:42;9.80;99.90
57264;DHT22;43113;53.124;6.092;2022-10-31T03:28:10;9.80;99.90
57264;DHT22;43113;53.124;6.092;2022-10-31T03:30:39;9.80;99.90
57264;DHT22;43113;53.124;6.092;2022-10-31T03:33:16;9.70;99.90
57264;DHT22;43113;53.124;6.092;2022-10-31T03:35:46;9.70;99.90
57264;DHT22;43113;53.124;6.092;2022-10-31T03:38:14;9.70;99.90
57264;DHT22;43113;53.124;6.092;2022-10-31T03:40:41;9.70;99.90
57264;DHT22;43113;53.124;6.092;2022-10-31T03:43:13;9.70;99.90
57264;DHT22;43113;53.124;6.092;2022-10-31T03:45:46;9.70;99.90
57264;DHT22;43113;53.124;6.092;2022-10-31T03:48:18;9.60;99.90
57264;DHT22;43113;53.124;6.092;2022-10-31T03:50:58;9.60;99.90
57264;DHT22;43113;53.124;6.092;2022-10-31T03:55:59;9.50;99.90
57264;DHT22;43113;53.124;6.092;2022-10-31T03:58:36;9.90;99.90
57264;DHT22;43113;53.124;6.092;2022-10-31T04:01:06;9.50;99.90
57264;DHT22;43113;53.124;6.092;2022-10-31T04:03:35;9.60;99.90
57264;DHT22;43113;53.124;6.092;2022-10-31T04:06:08;9.90;99.90
57264;DHT22;43113;53.124;6.092;2022-10-31T04:08:41;9.50;99.90
57264;DHT22;43113;53.124;6.092;2022-10-31T04:11:10;10.40;99.90
57264;DHT22;43113;53.124;6.092;2022-10-31T04:13:38;9.60;99.90
57264;DHT22;43113;53.124;6.092;2022-10-31T04:16:05;9.50;99.90
57264;DHT22;43113;53.124;6.092;2022-10-31T04:18:32;9.40;99.90
57264;DHT22;43113;53.124;6.092;2022-10-31T04:21:03;9.40;99.90
57264;DHT22;43113;53.124;6.092;2022-10-31T04:23:30;9.50;99.90
57264;DHT22;43113;53.124;6.092;2022-10-31T04:25:56;9.40;99.90
57264;DHT22;43113;53.124;6.092;2022-10-31T04:28:21;9.80;99.90
57264;DHT22;43113;53.124;6.092;2022-10-31T04:30:47;9.40;99.90
57264;DHT22;43113;53.124;6.092;2022-10-31T04:33:13;9.40;99.90
57264;DHT22;43113;53.124;6.092;2022-10-31T04:35:39;9.40;99.90
57264;DHT22;43113;53.124;6.092;2022-10-31T04:38:05;9.30;99.90
57264;DHT22;43113;53.124;6.092;2022-10-31T04:40:30;9.40;99.90
57264;DHT22;43113;53.124;6.092;2022-10-31T04:42:56;9.40;99.90
57264;DHT22;43113;53.124;6.092;2022-10-31T04:45:22;9.40;99.90
57264;DHT22;43113;53.124;6.092;2022-10-31T04:47:48;9.40;99.90
57264;DHT22;43113;53.124;6.092;2022-10-31T04:50:14;9.30;99.90
57264;DHT22;43113;53.124;6.092;2022-10-31T04:52:40;9.30;99.90
57264;DHT22;43113;53.124;6.092;2022-10-31T04:55:06;9.30;99.90
57264;DHT22;43113;53.124;6.092;2022-10-31T04:57:32;9.30;99.90
57264;DHT22;43113;53.124;6.092;2022-10-31T05:00:05;9.20;99.90
57264;DHT22;43113;53.124;6.092;2022-10-31T05:02:31;9.10;99.90
57264;DHT22;43113;53.124;6.092;2022-10-31T05:04:57;9.10;99.90
57264;DHT22;43113;53.124;6.092;2022-10-31T05:07:22;9.10;99.90
57264;DHT22;43113;53.124;6.092;2022-10-31T05:09:48;9.10;99.90
57264;DHT22;43113;53.124;6.092;2022-10-31T05:12:14;9.10;99.90
57264;DHT22;43113;53.124;6.092;2022-10-31T05:14:39;9.20;99.90
57264;DHT22;43113;53.124;6.092;2022-10-31T05:17:05;9.20;99.90
57264;DHT22;43113;53.124;6.092;2022-10-31T05:19:31;9.20;99.90
57264;DHT22;43113;53.124;6.092;2022-10-31T05:21:57;9.20;99.90
57264;DHT22;43113;53.124;6.092;2022-10-31T05:24:22;9.30;99.90
57264;DHT22;43113;53.124;6.092;2022-10-31T05:26:49;9.20;99.90
57264;DHT22;43113;53.124;6.092;2022-10-31T05:29:14;9.20;99.90
57264;DHT22;43113;53.124;6.092;2022-10-31T05:31:40;9.20;99.90
57264;DHT22;43113;53.124;6.092;2022-10-31T05:34:06;9.10;99.90
57264;DHT22;43113;53.124;6.092;2022-10-31T05:36:32;9.10;99.90
57264;DHT22;43113;53.124;6.092;2022-10-31T05:38:57;9.00;99.90
57264;DHT22;43113;53.124;6.092;2022-10-31T05:41:23;9.10;99.90
57264;DHT22;43113;53.124;6.092;2022-10-31T05:43:49;9.10;99.90
57264;DHT22;43113;53.124;6.092;2022-10-31T05:46:15;9.30;99.90
57264;DHT22;43113;53.124;6.092;2022-10-31T05:48:40;9.00;99.90
57264;DHT22;43113;53.124;6.092;2022-10-31T05:51:06;9.10;99.90
57264;DHT22;43113;53.124;6.092;2022-10-31T05:53:32;9.10;99.90
57264;DHT22;43113;53.124;6.092;2022-10-31T05:55:57;9.00;99.90
57264;DHT22;43113;53.124;6.092;2022-10-31T05:58:23;9.00;99.90
57264;DHT22;43113;53.124;6.092;2022-10-31T06:00:49;8.90;99.90
57264;DHT22;43113;53.124;6.092;2022-10-31T06:03:15;9.00;99.90
57264;DHT22;43113;53.124;6.092;2022-10-31T06:05:40;9.00;99.90
57264;DHT22;43113;53.124;6.092;2022-10-31T06:08:09;9.00;99.90
57264;DHT22;43113;53.124;6.092;2022-10-31T06:10:34;9.00;99.90
57264;DHT22;43113;53.124;6.092;2022-10-31T06:13:00;9.00;99.90
57264;DHT22;43113;53.124;6.092;2022-10-31T06:15:26;8.30;99.90
57264;DHT22;43113;53.124;6.092;2022-10-31T06:18:02;8.90;99.90
57264;DHT22;43113;53.124;6.092;2022-10-31T06:20:28;8.90;99.90
57264;DHT22;43113;53.124;6.092;2022-10-31T06:22:54;8.90;99.90
57264;DHT22;43113;53.124;6.092;2022-10-31T06:25:20;8.90;99.90
57264;DHT22;43113;53.124;6.092;2022-10-31T06:27:45;8.90;99.90
57264;DHT22;43113;53.124;6.092;2022-10-31T06:30:11;8.90;99.90
57264;DHT22;43113;53.124;6.092;2022-10-31T06:32:37;8.90;99.90
57264;DHT22;43113;53.124;6.092;2022-10-31T06:35:03;8.90;99.90
57264;DHT22;43113;53.124;6.092;2022-10-31T06:37:29;8.90;99.90
57264;DHT22;43113;53.124;6.092;2022-10-31T06:39:54;8.90;99.90
57264;DHT22;43113;53.124;6.092;2022-10-31T06:42:20;8.90;99.90
57264;DHT22;43113;53.124;6.092;2022-10-31T06:44:46;9.60;99.90
57264;DHT22;43113;53.124;6.092;2022-10-31T06:47:12;8.90;99.90
57264;DHT22;43113;53.124;6.092;2022-10-31T06:49:37;8.90;99.90
57264;DHT22;43113;53.124;6.092;2022-10-31T06:52:03;8.90;99.90
57264;DHT22;43113;53.124;6.092;2022-10-31T06:54:30;8.90;99.90
57264;DHT22;43113;53.124;6.092;2022-10-31T06:56:55;8.90;99.90
57264;DHT22;43113;53.124;6.092;2022-10-31T06:59:21;8.90;99.90
57264;DHT22;43113;53.124;6.092;2022-10-31T07:01:49;9.00;99.90
57264;DHT22;43113;53.124;6.092;2022-10-31T07:04:15;9.10;99.90
57264;DHT22;43113;53.124;6.092;2022-10-31T07:06:41;9.10;99.90
57264;DHT22;43113;53.124;6.092;2022-10-31T07:09:06;9.10;99.90
57264;DHT22;43113;53.124;6.092;2022-10-31T07:11:32;9.10;99.90
57264;DHT22;43113;53.124;6.092;2022-10-31T07:13:58;9.20;99.90
57264;DHT22;43113;53.124;6.092;2022-10-31T07:16:24;9.20;99.90
57264;DHT22;43113;53.124;6.092;2022-10-31T07:18:50;9.30;99.90
57264;DHT22;43113;53.124;6.092;2022-10-31T07:21:16;9.40;99.90
57264;DHT22;43113;53.124;6.092;2022-10-31T07:23:41;9.50;99.90
57264;DHT22;43113;53.124;6.092;2022-10-31T07:26:08;9.70;99.90
57264;DHT22;43113;53.124;6.092;2022-10-31T07:28:34;10.00;99.90
57264;DHT22;43113;53.124;6.092;2022-10-31T07:31:00;10.50;99.90
57264;DHT22;43113;53.124;6.092;2022-10-31T07:33:26;11.10;99.90
57264;DHT22;43113;53.124;6.092;2022-10-31T07:35:52;11.80;99.90
57264;DHT22;43113;53.124;6.092;2022-10-31T07:38:18;12.40;99.90
57264;DHT22;43113;53.124;6.092;2022-10-31T07:40:48;12.60;99.90
57264;DHT22;43113;53.124;6.092;2022-10-31T07:43:14;13.20;99.90
57264;DHT22;43113;53.124;6.092;2022-10-31T07:45:40;14.00;99.90
57264;DHT22;43113;53.124;6.092;2022-10-31T07:48:06;14.20;99.90
57264;DHT22;43113;53.124;6.092;2022-10-31T07:50:32;14.90;99.90
57264;DHT22;43113;53.124;6.092;2022-10-31T07:53:05;16.10;99.90
57264;DHT22;43113;53.124;6.092;2022-10-31T07:55:32;16.10;99.90
57264;DHT22;43113;53.124;6.092;2022-10-31T07:58:03;16.70;99.90
57264;DHT22;43113;53.124;6.092;2022-10-31T08:00:30;17.00;99.90
57264;DHT22;43113;53.124;6.092;2022-10-31T08:03:10;17.20;99.90
57264;DHT22;43113;53.124;6.092;2022-10-31T08:05:36;17.20;99.90
57264;DHT22;43113;53.124;6.092;2022-10-31T08:08:03;17.00;99.90
57264;DHT22;43113;53.124;6.092;2022-10-31T08:10:31;16.80;99.90
57264;DHT22;43113;53.124;6.092;2022-10-31T08:12:59;16.50;99.90
57264;DHT22;43113;53.124;6.092;2022-10-31T08:15:26;16.20;99.90
57264;DHT22;43113;53.124;6.092;2022-10-31T08:17:51;16.00;99.90
57264;DHT22;43113;53.124;6.092;2022-10-31T08:20:17;16.00;99.90
57264;DHT22;43113;53.124;6.092;2022-10-31T08:22:51;16.80;99.90
57264;DHT22;43113;53.124;6.092;2022-10-31T08:25:17;16.90;99.90
57264;DHT22;43113;53.124;6.092;2022-10-31T08:27:43;17.30;99.90
57264;DHT22;43113;53.124;6.092;2022-10-31T08:30:13;17.50;99.90
57264;DHT22;43113;53.124;6.092;2022-10-31T08:32:39;17.60;99.90
57264;DHT22;43113;53.124;6.092;2022-10-31T08:37:31;18.10;99.90
57264;DHT22;43113;53.124;6.092;2022-10-31T08:39:56;18.60;99.90
57264;DHT22;43113;53.124;6.092;2022-10-31T08:42:22;18.70;99.90
57264;DHT22;43113;53.124;6.092;2022-10-31T08:44:48;18.90;99.90
57264;DHT22;43113;53.124;6.092;2022-10-31T08:47:13;19.30;99.90
57264;DHT22;43113;53.124;6.092;2022-10-31T08:49:39;19.80;99.90
57264;DHT22;43113;53.124;6.092;2022-10-31T08:52:05;20.30;99.90
57264;DHT22;43113;53.124;6.092;2022-10-31T08:54:30;20.60;99.90
57264;DHT22;43113;53.124;6.092;2022-10-31T08:56:56;20.80;99.90
57264;DHT22;43113;53.124;6.092;2022-10-31T08:59:22;20.60;99.90
57264;DHT22;43113;53.124;6.092;2022-10-31T09:01:47;20.30;99.90
57264;DHT22;43113;53.124;6.092;2022-10-31T09:04:13;20.70;99.90
57264;DHT22;43113;53.124;6.092;2022-10-31T09:06:39;21.30;99.90
57264;DHT22;43113;53.124;6.092;2022-10-31T09:09:05;21.70;99.90
57264;DHT22;43113;53.124;6.092;2022-10-31T09:11:31;22.00;99.90
57264;DHT22;43113;53.124;6.092;2022-10-31T09:13:57;22.50;99.90
57264;DHT22;43113;53.124;6.092;2022-10-31T09:16:22;22.20;99.90
57264;DHT22;43113;53.124;6.092;2022-10-31T09:18:48;22.00;99.90
57264;DHT22;43113;53.124;6.092;2022-10-31T09:23:40;22.60;99.90
57264;DHT22;43113;53.124;6.092;2022-10-31T09:26:05;22.40;99.90
57264;DHT22;43113;53.124;6.092;2022-10-31T09:28:32;21.90;99.90
57264;DHT22;43113;53.124;6.092;2022-10-31T09:30:57;20.70;99.90
57264;DHT22;43113;53.124;6.092;2022-10-31T09:33:23;20.10;99.90
57264;DHT22;43113;53.124;6.092;2022-10-31T09:35:49;19.10;99.90
57264;DHT22;43113;53.124;6.092;2022-10-31T09:56:12;22.10;99.90
57264;DHT22;43113;53.124;6.092;2022-10-31T09:58:47;21.90;99.90
57264;DHT22;43113;53.124;6.092;2022-10-31T10:01:42;21.50;99.90
57264;DHT22;43113;53.124;6.092;2022-10-31T10:19:40;22.90;99.90
57264;DHT22;43113;53.124;6.092;2022-10-31T10:22:41;23.50;99.90
57264;DHT22;43113;53.124;6.092;2022-10-31T10:25:15;24.70;98.00
57264;DHT22;43113;53.124;6.092;2022-10-31T10:27:49;24.80;97.40
57264;DHT22;43113;53.124;6.092;2022-10-31T10:30:19;24.20;98.30
57264;DHT22;43113;53.124;6.092;2022-10-31T10:33:02;24.30;98.90
57264;DHT22;43113;53.124;6.092;2022-10-31T10:40:37;22.30;99.70
57264;DHT22;43113;53.124;6.092;2022-10-31T11:15:07;22.30;99.90
57264;DHT22;43113;53.124;6.092;2022-10-31T11:17:37;21.40;99.90
57264;DHT22;43113;53.124;6.092;2022-10-31T11:22:39;20.20;99.90
57264;DHT22;43113;53.124;6.092;2022-10-31T11:25:25;19.20;99.90
57264;DHT22;43113;53.124;6.092;2022-10-31T11:28:09;18.80;99.90
57264;DHT22;43113;53.124;6.092;2022-10-31T11:30:54;18.60;99.90
57264;DHT22;43113;53.124;6.092;2022-10-31T11:35:49;17.80;99.90
57264;DHT22;43113;53.124;6.092;2022-10-31T11:38:20;17.60;99.90
57264;DHT22;43113;53.124;6.092;2022-10-31T11:41:16;17.50;99.90
57264;DHT22;43113;53.124;6.092;2022-10-31T11:43:55;17.40;99.90
57264;DHT22;43113;53.124;6.092;2022-10-31T11:48:55;17.20;99.90
57264;DHT22;43113;53.124;6.092;2022-10-31T11:51:25;17.20;99.90
57264;DHT22;43113;53.124;6.092;2022-10-31T11:53:53;17.20;99.90
57264;DHT22;43113;53.124;6.092;2022-10-31T11:56:20;17.20;99.90
57264;DHT22;43113;53.124;6.092;2022-10-31T12:02:18;17.20;99.90
57264;DHT22;43113;53.124;6.092;2022-10-31T12:04:48;17.20;99.90
57264;DHT22;43113;53.124;6.092;2022-10-31T12:07:15;17.10;99.90
57264;DHT22;43113;53.124;6.092;2022-10-31T12:09:41;17.20;99.90
57264;DHT22;43113;53.124;6.092;2022-10-31T12:23:59;16.90;99.90
57264;DHT22;43113;53.124;6.092;2022-10-31T12:31:38;16.80;99.90
57264;DHT22;43113;53.124;6.092;2022-10-31T12:37:59;16.70;99.90
57264;DHT22;43113;53.124;6.092;2022-10-31T12:45:56;16.50;99.90
57264;DHT22;43113;53.124;6.092;2022-10-31T12:52:25;16.50;99.90
57264;DHT22;43113;53.124;6.092;2022-10-31T12:59:36;16.60;99.90
57264;DHT22;43113;53.124;6.092;2022-10-31T13:02:29;16.60;99.90
57264;DHT22;43113;53.124;6.092;2022-10-31T13:05:05;16.60;99.90
57264;DHT22;43113;53.124;6.092;2022-10-31T13:08:03;16.60;99.90
57264;DHT22;43113;53.124;6.092;2022-10-31T13:16:15;16.60;99.90
57264;DHT22;43113;53.124;6.092;2022-10-31T13:18:58;16.70;99.90
57264;DHT22;43113;53.124;6.092;2022-10-31T13:24:20;17.50;99.90
57264;DHT22;43113;53.124;6.092;2022-10-31T13:26:53;17.90;99.90
57264;DHT22;43113;53.124;6.092;2022-10-31T13:31:54;18.10;99.90
57264;DHT22;43113;53.124;6.092;2022-10-31T13:37:07;18.30;99.90
57264;DHT22;43113;53.124;6.092;2022-10-31T13:42:40;18.10;99.90
57264;DHT22;43113;53.124;6.092;2022-10-31T13:45:16;18.20;99.90
57264;DHT22;43113;53.124;6.092;2022-10-31T13:47:42;18.30;99.90
57264;DHT22;43113;53.124;6.092;2022-10-31T13:50:21;18.40;99.90
57264;DHT22;43113;53.124;6.092;2022-10-31T13:52:47;18.40;99.90
57264;DHT22;43113;53.124;6.092;2022-10-31T13:58:04;17.90;99.90
57264;DHT22;43113;53.124;6.092;2022-10-31T14:00:31;17.70;99.90
57264;DHT22;43113;53.124;6.092;2022-10-31T14:03:00;17.60;99.90
57264;DHT22;43113;53.124;6.092;2022-10-31T14:05:32;17.50;99.90
57264;DHT22;43113;53.124;6.092;2022-10-31T14:08:01;17.20;99.90
57264;DHT22;43113;53.124;6.092;2022-10-31T14:10:36;17.10;99.90
57264;DHT22;43113;53.124;6.092;2022-10-31T14:13:25;16.90;99.90
57264;DHT22;43113;53.124;6.092;2022-10-31T14:15:57;16.80;99.90
57264;DHT22;43113;53.124;6.092;2022-10-31T14:20:58;16.60;99.90
57264;DHT22;43113;53.124;6.092;2022-10-31T14:28:44;17.40;99.90
57264;DHT22;43113;53.124;6.092;2022-10-31T14:33:54;16.40;99.90
57264;DHT22;43113;53.124;6.092;2022-10-31T14:36:42;16.30;99.90
57264;DHT22;43113;53.124;6.092;2022-10-31T14:48:00;16.30;99.90
57264;DHT22;43113;53.124;6.092;2022-10-31T14:50:41;16.30;99.90
57264;DHT22;43113;53.124;6.092;2022-10-31T14:53:15;16.20;99.90
57264;DHT22;43113;53.124;6.092;2022-10-31T14:55:47;16.20;99.90
57264;DHT22;43113;53.124;6.092;2022-10-31T14:58:28;16.10;99.90
57264;DHT22;43113;53.124;6.092;2022-10-31T15:00:59;16.00;99.90
57264;DHT22;43113;53.124;6.092;2022-10-31T15:03:37;16.00;99.90
57264;DHT22;43113;53.124;6.092;2022-10-31T15:06:16;15.90;99.90
57264;DHT22;43113;53.124;6.092;2022-10-31T15:08:51;15.80;99.90
57264;DHT22;43113;53.124;6.092;2022-10-31T15:11:21;15.70;99.90
57264;DHT22;43113;53.124;6.092;2022-10-31T15:13:53;15.70;99.90
57264;DHT22;43113;53.124;6.092;2022-10-31T15:16:26;15.70;99.90
57264;DHT22;43113;53.124;6.092;2022-10-31T15:18:58;15.60;99.90
57264;DHT22;43113;53.124;6.092;2022-10-31T15:21:26;15.50;99.90
57264;DHT22;43113;53.124;6.092;2022-10-31T15:23:56;15.40;99.90
57264;DHT22;43113;53.124;6.092;2022-10-31T15:26:26;15.40;99.90
57264;DHT22;43113;53.124;6.092;2022-10-31T15:31:25;15.20;99.90
57264;DHT22;43113;53.124;6.092;2022-10-31T15:33:52;15.10;99.90
57264;DHT22;43113;53.124;6.092;2022-10-31T15:36:26;15.10;99.90
57264;DHT22;43113;53.124;6.092;2022-10-31T15:38:52;15.00;99.90
57264;DHT22;43113;53.124;6.092;2022-10-31T15:41:31;14.90;99.90
57264;DHT22;43113;53.124;6.092;2022-10-31T15:44:34;14.90;99.90
57264;DHT22;43113;53.124;6.092;2022-10-31T15:47:04;14.80;99.90
57264;DHT22;43113;53.124;6.092;2022-10-31T15:49:39;14.80;99.90
57264;DHT22;43113;53.124;6.092;2022-10-31T15:54:53;14.70;99.90
57264;DHT22;43113;53.124;6.092;2022-10-31T15:57:22;14.60;99.90
57264;DHT22;43113;53.124;6.092;2022-10-31T15:59:49;14.60;99.90
57264;DHT22;43113;53.124;6.092;2022-10-31T16:02:20;14.50;99.90
57264;DHT22;43113;53.124;6.092;2022-10-31T16:04:58;14.50;99.90
57264;DHT22;43113;53.124;6.092;2022-10-31T16:07:24;14.40;99.90
57264;DHT22;43113;53.124;6.092;2022-10-31T16:12:34;14.30;99.90
57264;DHT22;43113;53.124;6.092;2022-10-31T16:15:01;14.30;99.90
57264;DHT22;43113;53.124;6.092;2022-10-31T16:17:27;14.20;99.90
57264;DHT22;43113;53.124;6.092;2022-10-31T16:20:06;14.20;99.90
57264;DHT22;43113;53.124;6.092;2022-10-31T16:22:36;14.20;99.90
57264;DHT22;43113;53.124;6.092;2022-10-31T16:25:19;14.10;99.90
57264;DHT22;43113;53.124;6.092;2022-10-31T16:28:02;14.10;99.90
57264;DHT22;43113;53.124;6.092;2022-10-31T16:30:40;14.10;99.90
57264;DHT22;43113;53.124;6.092;2022-10-31T16:35:55;14.10;99.90
57264;DHT22;43113;53.124;6.092;2022-10-31T16:38:21;14.10;99.90
57264;DHT22;43113;53.124;6.092;2022-10-31T16:40:48;14.00;99.90
57264;DHT22;43113;53.124;6.092;2022-10-31T16:43:16;14.00;99.90
57264;DHT22;43113;53.124;6.092;2022-10-31T16:45:45;14.00;99.90
57264;DHT22;43113;53.124;6.092;2022-10-31T16:48:17;14.00;99.90
57264;DHT22;43113;53.124;6.092;2022-10-31T16:50:43;13.90;99.90
57264;DHT22;43113;53.124;6.092;2022-10-31T16:53:10;13.90;99.90
57264;DHT22;43113;53.124;6.092;2022-10-31T16:55:57;13.90;99.90
57264;DHT22;43113;53.124;6.092;2022-10-31T16:58:32;13.90;99.90
57264;DHT22;43113;53.124;6.092;2022-10-31T17:01:05;13.90;99.90
57264;DHT22;43113;53.124;6.092;2022-10-31T17:03:32;13.90;99.90
57264;DHT22;43113;53.124;6.092;2022-10-31T17:06:03;13.90;99.90
57264;DHT22;43113;53.124;6.092;2022-10-31T17:08:30;13.80;99.90
57264;DHT22;43113;53.124;6.092;2022-10-31T17:10:56;13.80;99.90
57264;DHT22;43113;53.124;6.092;2022-10-31T17:13:31;13.80;99.90
57264;DHT22;43113;53.124;6.092;2022-10-31T17:16:00;13.80;99.90
57264;DHT22;43113;53.124;6.092;2022-10-31T17:18:26;13.80;99.90
57264;DHT22;43113;53.124;6.092;2022-10-31T17:20:57;13.80;99.90
57264;DHT22;43113;53.124;6.092;2022-10-31T17:23:24;13.80;99.90
57264;DHT22;43113;53.124;6.092;2022-10-31T17:25:50;13.80;99.90
57264;DHT22;43113;53.124;6.092;2022-10-31T17:28:16;13.80;99.90
57264;DHT22;43113;53.124;6.092;2022-10-31T17:30:42;13.80;99.90
57264;DHT22;43113;53.124;6.092;2022-10-31T17:33:13;13.80;99.90
57264;DHT22;43113;53.124;6.092;2022-10-31T17:35:40;13.80;99.90
57264;DHT22;43113;53.124;6.092;2022-10-31T17:38:06;13.80;99.90
57264;DHT22;43113;53.124;6.092;2022-10-31T17:40:32;13.80;99.90
57264;DHT22;43113;53.124;6.092;2022-10-31T17:42:58;13.70;99.90
57264;DHT22;43113;53.124;6.092;2022-10-31T17:45:25;13.70;99.90
57264;DHT22;43113;53.124;6.092;2022-10-31T17:47:52;13.70;99.90
57264;DHT22;43113;53.124;6.092;2022-10-31T17:50:21;13.70;99.90
57264;DHT22;43113;53.124;6.092;2022-10-31T17:52:47;13.80;99.90
57264;DHT22;43113;53.124;6.092;2022-10-31T17:55:14;13.80;99.90
57264;DHT22;43113;53.124;6.092;2022-10-31T17:57:39;13.70;99.90
57264;DHT22;43113;53.124;6.092;2022-10-31T18:00:07;13.70;99.90
57264;DHT22;43113;53.124;6.092;2022-10-31T18:02:35;13.70;99.90
57264;DHT22;43113;53.124;6.092;2022-10-31T18:05:01;13.70;99.90
57264;DHT22;43113;53.124;6.092;2022-10-31T18:07:27;13.70;99.90
57264;DHT22;43113;53.124;6.092;2022-10-31T18:09:53;13.70;99.90
57264;DHT22;43113;53.124;6.092;2022-10-31T18:12:19;13.70;99.90
57264;DHT22;43113;53.124;6.092;2022-10-31T18:14:45;13.60;99.90
57264;DHT22;43113;53.124;6.092;2022-10-31T18:17:11;13.70;99.90
57264;DHT22;43113;53.124;6.092;2022-10-31T18:19:37;13.70;99.90
57264;DHT22;43113;53.124;6.092;2022-10-31T18:22:02;13.60;99.90
57264;DHT22;43113;53.124;6.092;2022-10-31T18:24:29;13.60;99.90
57264;DHT22;43113;53.124;6.092;2022-10-31T18:26:55;13.60;99.90
57264;DHT22;43113;53.124;6.092;2022-10-31T18:29:20;13.60;99.90
57264;DHT22;43113;53.124;6.092;2022-10-31T18:31:46;13.60;99.90
57264;DHT22;43113;53.124;6.092;2022-10-31T18:34:16;13.60;99.90
57264;DHT22;43113;53.124;6.092;2022-10-31T18:36:42;13.60;99.90
57264;DHT22;43113;53.124;6.092;2022-10-31T18:39:08;13.50;99.90
57264;DHT22;43113;53.124;6.092;2022-10-31T18:41:35;13.50;99.90
57264;DHT22;43113;53.124;6.092;2022-10-31T18:44:03;13.50;99.90
57264;DHT22;43113;53.124;6.092;2022-10-31T18:46:29;13.50;99.90
57264;DHT22;43113;53.124;6.092;2022-10-31T18:48:54;13.50;99.90
57264;DHT22;43113;53.124;6.092;2022-10-31T18:51:20;13.60;99.90
57264;DHT22;43113;53.124;6.092;2022-10-31T18:53:55;13.60;99.90
57264;DHT22;43113;53.124;6.092;2022-10-31T18:56:21;13.60;99.90
57264;DHT22;43113;53.124;6.092;2022-10-31T18:58:48;13.60;99.90
57264;DHT22;43113;53.124;6.092;2022-10-31T19:01:17;13.60;99.90
57264;DHT22;43113;53.124;6.092;2022-10-31T19:03:43;13.50;99.90
57264;DHT22;43113;53.124;6.092;2022-10-31T19:06:09;13.50;99.90
57264;DHT22;43113;53.124;6.092;2022-10-31T19:08:38;13.50;99.90
57264;DHT22;43113;53.124;6.092;2022-10-31T19:13:31;13.50;99.90
57264;DHT22;43113;53.124;6.092;2022-10-31T19:16:09;13.50;99.90
57264;DHT22;43113;53.124;6.092;2022-10-31T19:18:36;13.50;99.90
57264;DHT22;43113;53.124;6.092;2022-10-31T19:21:11;13.50;99.90
57264;DHT22;43113;53.124;6.092;2022-10-31T19:23:37;13.50;99.90
57264;DHT22;43113;53.124;6.092;2022-10-31T19:26:04;13.50;99.90